Terminal Aerodrome Forecast
Issued by NWS Twin Cities, MN

Home | Current Version | Previous Version | Text Only | Print | Product List | Glossary Off
Versions: 1 2 3 4 5 6 7 8 9 10 11 12 13 14 15 16 17 18 19 20

000
FTUS43 KMPX 292200 AAB
TAFSTC
TAF AMD
KSTC 292228Z 2922/3018 24004KT P6SM BKN024
      TEMPO 2923/2924 SCT024 BKN120
     FM300000 17006KT P6SM SCT024 BKN120
     FM300300 VRB03KT P6SM BKN100
     FM301200 36003KT P6SM OVC050
     FM301600 35007KT P6SM OVC025=

USA.gov is the U.S. government's official web portal to all federal, state and local government web resources and services.